createdAt,value
2023-01-20T00:01:12.026Z,0.40
2023-01-20T00:03:40.354Z,0.38
2023-01-20T00:06:08.722Z,0.28
2023-01-20T00:08:37.263Z,0.70
2023-01-20T00:11:06.911Z,0.25
2023-01-20T00:13:35.136Z,1.10
2023-01-20T00:16:05.137Z,1.20
2023-01-20T00:18:33.475Z,0.60
2023-01-20T00:21:04.292Z,0.57
2023-01-20T00:23:32.575Z,0.73
2023-01-20T00:26:00.784Z,0.75
2023-01-20T00:28:29.035Z,1.05
2023-01-20T00:30:57.332Z,0.45
2023-01-20T00:33:27.033Z,1.98
2023-01-20T00:35:55.276Z,1.45
2023-01-20T00:38:23.611Z,0.63
2023-01-20T00:40:55.818Z,1.27
2023-01-20T00:43:24.153Z,0.73
2023-01-20T00:45:52.396Z,0.40
2023-01-20T00:48:20.635Z,1.23
2023-01-20T00:50:50.261Z,0.85
2023-01-20T00:53:18.573Z,1.65
2023-01-20T00:55:47.228Z,0.75
2023-01-20T00:58:15.458Z,0.65
2023-01-20T01:00:43.702Z,1.10
2023-01-20T01:03:11.937Z,0.80
2023-01-20T01:05:40.247Z,0.63
2023-01-20T01:08:10.449Z,0.93
2023-01-20T01:10:38.760Z,0.68
2023-01-20T01:13:07.525Z,1.20
2023-01-20T01:15:35.889Z,0.60
2023-01-20T01:18:04.246Z,0.60
2023-01-20T01:20:32.756Z,1.05
2023-01-20T01:23:01.062Z,1.38
2023-01-20T01:25:30.881Z,1.05
2023-01-20T01:27:59.069Z,0.63
2023-01-20T01:30:27.338Z,0.30
2023-01-20T01:32:55.624Z,1.52
2023-01-20T01:35:23.868Z,1.02
2023-01-20T01:37:52.151Z,0.40
2023-01-20T01:40:20.531Z,0.45
2023-01-20T01:42:50.138Z,0.65
2023-01-20T01:45:27.225Z,0.80
2023-01-20T01:47:57.894Z,1.17
2023-01-20T01:50:27.457Z,0.90
2023-01-20T01:52:57.399Z,0.73
2023-01-20T01:55:28.758Z,0.40
2023-01-20T01:57:58.812Z,0.30
2023-01-20T02:00:27.055Z,0.70
2023-01-20T02:02:56.478Z,0.90
2023-01-20T02:05:25.962Z,0.43
2023-01-20T02:07:54.526Z,0.40
2023-01-20T02:10:22.842Z,0.55
2023-01-20T02:12:51.773Z,0.68
2023-01-20T02:15:24.845Z,0.93
2023-01-20T02:17:57.053Z,0.43
2023-01-20T02:20:38.566Z,0.98
2023-01-20T02:23:09.828Z,0.70
2023-01-20T02:25:55.375Z,0.63
2023-01-20T02:28:35.361Z,0.52
2023-01-20T02:31:15.762Z,0.82
2023-01-20T02:33:47.818Z,0.73
2023-01-20T02:36:19.602Z,0.32
2023-01-20T02:38:51.848Z,1.10
2023-01-20T02:41:23.003Z,0.73
2023-01-20T02:43:56.277Z,0.47
2023-01-20T02:46:27.248Z,1.23
2023-01-20T02:49:00.141Z,0.20
2023-01-20T02:51:30.929Z,0.40
2023-01-20T02:54:02.330Z,0.60
2023-01-20T02:56:31.339Z,0.40
2023-01-20T02:59:01.288Z,0.40
2023-01-20T03:01:32.984Z,0.80
2023-01-20T03:04:03.862Z,0.65
2023-01-20T03:06:35.027Z,0.70
2023-01-20T03:09:04.447Z,0.60
2023-01-20T03:11:36.025Z,1.13
2023-01-20T03:14:06.373Z,1.33
2023-01-20T03:16:34.735Z,0.30
2023-01-20T03:19:04.602Z,0.60
2023-01-20T03:21:32.868Z,0.68
2023-01-20T03:24:02.339Z,0.43
2023-01-20T03:26:31.119Z,0.60
2023-01-20T03:28:59.638Z,0.43
2023-01-20T03:31:29.528Z,0.47
2023-01-20T03:33:59.543Z,0.40
2023-01-20T03:36:30.740Z,0.70
2023-01-20T03:39:00.078Z,0.28
2023-01-20T03:41:31.748Z,0.40
2023-01-20T03:44:04.905Z,0.90
2023-01-20T03:46:34.204Z,0.75
2023-01-20T03:49:04.228Z,0.43
2023-01-20T03:51:36.344Z,0.70
2023-01-20T03:54:08.787Z,1.15
2023-01-20T03:56:38.434Z,1.48
2023-01-20T03:59:09.123Z,1.13
2023-01-20T04:01:38.558Z,0.93
2023-01-20T04:04:07.848Z,0.65
2023-01-20T04:06:38.026Z,0.20
2023-01-20T04:09:07.769Z,0.70
2023-01-20T04:11:36.231Z,0.30
2023-01-20T04:14:04.688Z,0.63
2023-01-20T04:16:32.922Z,1.02
2023-01-20T04:19:01.143Z,0.80
2023-01-20T04:21:31.779Z,0.55
2023-01-20T04:24:04.687Z,0.75
2023-01-20T04:26:32.936Z,1.08
2023-01-20T04:29:09.778Z,0.30
2023-01-20T04:31:39.839Z,0.60
2023-01-20T04:34:09.735Z,0.52
2023-01-20T04:36:37.945Z,0.88
2023-01-20T04:39:07.623Z,1.42
2023-01-20T04:41:35.898Z,0.82
2023-01-20T04:44:04.180Z,0.65
2023-01-20T04:46:32.413Z,0.40
2023-01-20T04:49:00.635Z,0.90
2023-01-20T04:51:28.868Z,0.93
2023-01-20T04:53:58.260Z,1.05
2023-01-20T04:56:27.990Z,0.32
2023-01-20T04:58:56.207Z,0.32
2023-01-20T05:01:24.489Z,0.50
2023-01-20T05:03:52.819Z,0.52
2023-01-20T05:06:21.054Z,0.50
2023-01-20T05:08:49.309Z,0.50
2023-01-20T05:11:17.571Z,0.47
2023-01-20T05:13:47.365Z,0.20
2023-01-20T05:16:15.763Z,0.80
2023-01-20T05:18:44.019Z,1.42
2023-01-20T05:21:12.230Z,0.65
2023-01-20T05:23:40.479Z,0.63
2023-01-20T05:26:08.882Z,0.77
2023-01-20T05:28:37.120Z,0.43
2023-01-20T05:31:06.859Z,0.60
2023-01-20T05:33:35.162Z,1.27
2023-01-20T05:36:06.360Z,0.30
2023-01-20T05:38:34.650Z,0.50
2023-01-20T05:41:02.905Z,0.98
2023-01-20T05:43:31.157Z,0.75
2023-01-20T05:45:59.432Z,0.57
2023-01-20T05:48:29.045Z,0.73
2023-01-20T05:50:57.290Z,0.47
2023-01-20T05:53:25.676Z,0.88
2023-01-20T05:56:00.151Z,0.95
2023-01-20T06:00:56.853Z,0.30
2023-01-20T06:03:25.175Z,0.47
2023-01-20T06:05:54.793Z,0.15
2023-01-20T06:08:23.011Z,0.20
2023-01-20T06:10:51.326Z,0.70
2023-01-20T06:13:19.573Z,1.38
2023-01-20T06:15:52.313Z,0.65
2023-01-20T06:18:20.670Z,0.50
2023-01-20T06:20:48.959Z,0.95
2023-01-20T06:23:18.873Z,0.47
2023-01-20T06:25:47.167Z,0.70
2023-01-20T06:28:15.410Z,0.57
2023-01-20T06:30:43.929Z,0.93
2023-01-20T06:33:12.238Z,0.52
2023-01-20T06:35:40.532Z,0.90
2023-01-20T06:38:08.793Z,1.30
2023-01-20T06:40:38.348Z,0.82
2023-01-20T06:43:06.587Z,0.82
2023-01-20T06:45:34.832Z,0.55
2023-01-20T06:48:03.059Z,1.20
2023-01-20T06:50:31.309Z,0.35
2023-01-20T06:52:59.612Z,0.50
2023-01-20T06:55:27.891Z,0.77
2023-01-20T06:57:57.536Z,0.82
2023-01-20T07:00:26.002Z,0.32
2023-01-20T07:02:54.301Z,0.55
2023-01-20T07:05:22.587Z,0.50
2023-01-20T07:07:50.831Z,0.98
2023-01-20T07:10:19.266Z,0.45
2023-01-20T07:12:47.611Z,0.28
2023-01-20T07:15:17.376Z,0.80
2023-01-20T07:17:45.735Z,0.50
2023-01-20T07:20:14.395Z,0.55
2023-01-20T07:22:42.655Z,0.52
2023-01-20T07:25:11.451Z,0.55
2023-01-20T07:27:39.707Z,0.98
2023-01-20T07:30:08.719Z,0.40
2023-01-20T07:32:38.312Z,1.40
2023-01-20T07:35:06.933Z,0.38
2023-01-20T07:37:35.338Z,0.52
2023-01-20T07:40:03.949Z,0.75
2023-01-20T07:42:32.260Z,0.90
2023-01-20T07:45:00.541Z,0.50
2023-01-20T07:47:28.771Z,1.45
2023-01-20T07:49:58.479Z,1.30
2023-01-20T07:52:26.728Z,0.85
2023-01-20T07:54:55.026Z,0.50
2023-01-20T07:57:23.297Z,0.73
2023-01-20T07:59:51.615Z,0.52
2023-01-20T08:02:19.906Z,0.47
2023-01-20T08:04:48.380Z,0.38
2023-01-20T08:07:18.285Z,1.13
2023-01-20T08:09:46.637Z,0.50
2023-01-20T08:12:15.037Z,0.65
2023-01-20T08:14:43.407Z,0.60
2023-01-20T08:17:11.718Z,0.73
2023-01-20T08:19:39.953Z,2.13
2023-01-20T08:22:08.606Z,4.63
2023-01-20T08:24:38.592Z,3.50
2023-01-20T08:27:06.915Z,1.40
2023-01-20T08:29:35.264Z,1.52
2023-01-20T08:32:03.662Z,2.13
2023-01-20T08:34:31.971Z,1.35
2023-01-20T08:37:00.444Z,1.08
2023-01-20T08:39:28.801Z,1.67
2023-01-20T08:41:58.596Z,1.60
2023-01-20T08:44:27.514Z,2.72
2023-01-20T08:46:59.310Z,3.92
2023-01-20T08:49:27.893Z,2.92
2023-01-20T08:51:56.731Z,2.40
2023-01-20T08:54:25.620Z,1.02
2023-01-20T08:56:54.829Z,2.42
2023-01-20T08:59:25.212Z,1.20
2023-01-20T09:01:54.107Z,1.27
2023-01-20T09:04:22.926Z,1.23
2023-01-20T09:06:53.176Z,1.33
2023-01-20T09:09:23.023Z,1.42
2023-01-20T09:11:55.024Z,1.52
2023-01-20T09:14:26.503Z,0.43
2023-01-20T09:16:55.036Z,0.93
2023-01-20T09:19:23.520Z,0.45
2023-01-20T09:21:52.032Z,0.60
2023-01-20T09:24:20.798Z,0.55
2023-01-20T09:26:49.554Z,1.42
2023-01-20T09:29:18.861Z,1.40
2023-01-20T09:31:53.139Z,0.80
2023-01-20T09:34:25.709Z,0.52
2023-01-20T09:36:54.540Z,0.80
2023-01-20T09:39:41.171Z,1.05
2023-01-20T09:42:36.312Z,1.15
2023-01-20T09:45:22.672Z,0.80
2023-01-20T09:47:52.611Z,0.40
2023-01-20T09:50:43.306Z,0.75
2023-01-20T09:53:16.299Z,1.20
2023-01-20T09:55:48.894Z,0.85
2023-01-20T09:58:27.748Z,0.75
2023-01-20T10:01:01.661Z,1.13
2023-01-20T10:03:37.270Z,1.42
2023-01-20T10:06:10.243Z,1.30
2023-01-20T10:08:49.917Z,0.90
2023-01-20T10:11:28.658Z,1.10
2023-01-20T10:14:01.956Z,0.50
2023-01-20T10:16:34.430Z,1.40
2023-01-20T10:19:07.081Z,1.20
2023-01-20T10:21:38.389Z,0.70
2023-01-20T10:24:09.792Z,0.77
2023-01-20T10:26:44.096Z,1.42
2023-01-20T10:29:16.283Z,1.02
2023-01-20T10:31:46.673Z,0.70
2023-01-20T10:34:18.752Z,0.63
2023-01-20T10:36:50.790Z,1.25
2023-01-20T10:39:24.990Z,0.95
2023-01-20T10:41:57.061Z,1.00
2023-01-20T10:44:25.575Z,1.23
2023-01-20T10:46:57.739Z,0.30
2023-01-20T10:49:36.799Z,0.50
2023-01-20T10:52:13.176Z,0.32
2023-01-20T10:54:47.343Z,0.30
2023-01-20T10:57:16.901Z,0.70
2023-01-20T10:59:46.571Z,0.70
2023-01-20T11:02:17.195Z,0.40
2023-01-20T11:04:47.413Z,0.20
2023-01-20T11:07:17.934Z,0.35
2023-01-20T11:09:46.647Z,1.52
2023-01-20T11:12:16.991Z,0.52
2023-01-20T11:14:45.399Z,0.52
2023-01-20T11:17:15.903Z,1.30
2023-01-20T11:19:53.052Z,0.68
2023-01-20T11:22:25.857Z,0.90
2023-01-20T11:24:56.216Z,0.20
2023-01-20T11:27:26.669Z,0.73
2023-01-20T11:29:58.342Z,1.10
2023-01-20T11:32:28.605Z,1.02
2023-01-20T11:34:58.651Z,0.82
2023-01-20T11:37:27.543Z,0.82
2023-01-20T11:40:00.647Z,0.20
2023-01-20T11:42:30.715Z,0.40
2023-01-20T11:45:15.340Z,1.52
2023-01-20T11:47:48.114Z,0.22
2023-01-20T11:50:25.158Z,0.70
2023-01-20T11:52:53.579Z,0.60
2023-01-20T11:55:23.696Z,0.52
2023-01-20T11:57:54.831Z,0.80
2023-01-20T12:00:35.337Z,1.48
2023-01-20T12:03:13.393Z,0.45
2023-01-20T12:05:45.287Z,0.47
2023-01-20T12:08:17.459Z,0.63
2023-01-20T12:10:46.777Z,0.50
2023-01-20T12:13:18.969Z,2.50
2023-01-20T12:15:52.881Z,0.50
2023-01-20T12:18:24.052Z,0.87
2023-01-20T12:20:57.748Z,0.90
2023-01-20T12:23:39.345Z,1.45
2023-01-20T12:26:08.548Z,0.57
2023-01-20T12:28:40.555Z,1.13
2023-01-20T12:31:09.202Z,1.58
2023-01-20T12:33:39.747Z,0.40
2023-01-20T12:36:35.900Z,0.75
2023-01-20T12:39:27.069Z,0.65
2023-01-20T12:42:13.986Z,1.23
2023-01-20T12:44:46.922Z,0.28
2023-01-20T12:47:19.154Z,0.73
2023-01-20T12:49:53.787Z,1.33
2023-01-20T12:52:29.913Z,1.45
2023-01-20T12:55:04.756Z,1.08
2023-01-20T13:00:09.454Z,2.47
2023-01-20T13:02:50.834Z,4.82
2023-01-20T13:05:40.320Z,2.78
2023-01-20T13:08:16.544Z,4.60
2023-01-20T13:10:51.446Z,4.18
2023-01-20T13:13:22.983Z,4.07
2023-01-20T13:15:57.124Z,2.63
2023-01-20T13:18:27.991Z,4.10
2023-01-20T13:20:57.161Z,1.35
2023-01-20T13:23:28.342Z,2.10
2023-01-20T13:25:57.700Z,3.08
2023-01-20T13:28:28.034Z,3.90
2023-01-20T13:30:57.787Z,2.92
2023-01-20T13:33:33.671Z,3.20
2023-01-20T13:36:03.082Z,3.80
2023-01-20T13:38:36.092Z,2.15
2023-01-20T13:41:06.281Z,4.05
2023-01-20T13:43:36.367Z,2.22
2023-01-20T13:46:23.695Z,3.45
2023-01-20T13:49:07.165Z,2.40
2023-01-20T13:51:45.636Z,3.08
2023-01-20T13:54:30.863Z,4.03
2023-01-20T13:59:29.217Z,2.28
2023-01-20T14:01:58.040Z,2.25
2023-01-20T14:04:26.721Z,2.78
2023-01-20T14:06:55.483Z,1.85
2023-01-20T14:09:24.759Z,1.65
2023-01-20T14:11:54.207Z,2.70
2023-01-20T14:14:25.957Z,3.60
2023-01-20T14:16:58.046Z,3.55
2023-01-20T14:19:30.017Z,3.72
2023-01-20T14:21:59.736Z,3.63
2023-01-20T14:24:29.606Z,2.45
2023-01-20T14:27:08.016Z,2.08
2023-01-20T14:29:36.947Z,2.13
2023-01-20T14:32:16.056Z,3.40
2023-01-20T14:34:44.970Z,3.55
2023-01-20T14:37:24.327Z,3.63
2023-01-20T14:39:55.129Z,1.83
2023-01-20T14:42:24.413Z,2.50
2023-01-20T14:44:54.192Z,2.17
2023-01-20T14:47:24.873Z,2.83
2023-01-20T14:49:54.422Z,1.92
2023-01-20T14:52:24.552Z,0.85
2023-01-20T14:54:56.152Z,2.88
2023-01-20T14:57:28.500Z,3.08
2023-01-20T15:00:18.270Z,3.10
2023-01-20T15:03:01.320Z,1.98
2023-01-20T15:05:34.500Z,3.45
2023-01-20T15:08:18.594Z,2.45
2023-01-20T15:10:47.123Z,2.58
2023-01-20T15:13:25.694Z,1.13
2023-01-20T15:15:54.792Z,3.20
2023-01-20T15:18:26.978Z,1.95
2023-01-20T15:21:11.753Z,2.72
2023-01-20T15:23:46.446Z,2.05
2023-01-20T15:26:24.520Z,1.83
2023-01-20T15:28:53.053Z,1.92
2023-01-20T15:31:21.861Z,1.92
2023-01-20T15:33:53.149Z,1.80
2023-01-20T15:36:25.444Z,1.75
2023-01-20T15:38:54.082Z,2.20
2023-01-20T15:41:22.777Z,2.85
2023-01-20T15:43:52.472Z,3.33
2023-01-20T15:46:21.112Z,2.35
2023-01-20T15:48:49.603Z,1.20
2023-01-20T15:51:21.559Z,3.20
2023-01-20T15:53:50.338Z,2.53
2023-01-20T15:56:21.687Z,2.95
2023-01-20T15:58:50.397Z,3.60
2023-01-20T16:01:20.094Z,2.40
2023-01-20T16:03:48.660Z,2.67
2023-01-20T16:06:18.038Z,2.13
2023-01-20T16:08:49.542Z,2.38
2023-01-20T16:11:18.634Z,3.20
2023-01-20T16:13:47.315Z,3.20
2023-01-20T16:16:16.230Z,1.63
2023-01-20T16:18:45.075Z,2.47
2023-01-20T16:21:14.188Z,2.30
2023-01-20T16:23:42.898Z,2.78
2023-01-20T16:26:22.826Z,2.42
2023-01-20T16:28:51.837Z,3.15
2023-01-20T16:31:20.524Z,2.22
2023-01-20T16:33:49.012Z,2.40
2023-01-20T16:36:18.951Z,2.45
2023-01-20T16:38:47.873Z,1.98
2023-01-20T16:41:17.797Z,2.08
2023-01-20T16:43:48.082Z,1.50
2023-01-20T16:46:17.373Z,3.00
2023-01-20T16:48:46.166Z,2.40
2023-01-20T16:51:15.652Z,2.75
2023-01-20T16:53:44.383Z,0.93
2023-01-20T16:56:15.496Z,2.28
2023-01-20T16:58:44.044Z,2.17
2023-01-20T17:01:14.554Z,1.95
2023-01-20T17:03:44.485Z,2.00
2023-01-20T17:06:13.879Z,1.27
2023-01-20T17:08:45.580Z,1.80
2023-01-20T17:11:18.645Z,2.65
2023-01-20T17:13:47.446Z,2.65
2023-01-20T17:16:17.285Z,2.75
2023-01-20T17:18:45.930Z,1.90
2023-01-20T17:21:15.444Z,2.10
2023-01-20T17:23:44.404Z,2.05
2023-01-20T17:26:12.838Z,1.65
2023-01-20T17:28:41.247Z,2.13
2023-01-20T17:31:09.596Z,1.58
2023-01-20T17:33:39.339Z,0.75
2023-01-20T17:36:08.486Z,1.67
2023-01-20T17:38:39.753Z,1.67
2023-01-20T17:41:09.350Z,2.33
2023-01-20T17:43:38.775Z,1.80
2023-01-20T17:46:14.017Z,1.90
2023-01-20T17:48:44.470Z,1.95
2023-01-20T17:51:13.861Z,2.40
2023-01-20T17:53:44.287Z,2.30
2023-01-20T17:56:13.987Z,1.88
2023-01-20T17:58:42.689Z,1.98
2023-01-20T18:01:12.029Z,2.50
2023-01-20T18:03:42.910Z,2.70
2023-01-20T18:06:14.392Z,3.75
2023-01-20T18:08:42.905Z,1.58
2023-01-20T18:11:12.022Z,3.60
2023-01-20T18:13:40.699Z,1.65
2023-01-20T18:16:11.228Z,1.30
2023-01-20T18:18:39.719Z,1.77
2023-01-20T18:21:11.539Z,1.85
2023-01-20T18:23:41.501Z,2.42
2023-01-20T18:26:10.618Z,2.53
2023-01-20T18:28:39.279Z,1.58
2023-01-20T18:31:09.353Z,3.13
2023-01-20T18:33:39.988Z,2.15
2023-01-20T18:36:09.435Z,2.45
2023-01-20T18:38:43.028Z,1.52
2023-01-20T18:41:13.193Z,2.15
2023-01-20T18:43:41.989Z,2.90
2023-01-20T18:46:10.776Z,2.03
2023-01-20T18:48:39.917Z,1.60
2023-01-20T18:51:10.380Z,3.15
2023-01-20T18:53:39.260Z,1.70
2023-01-20T18:56:08.798Z,1.75
2023-01-20T18:58:39.600Z,1.65
2023-01-20T19:01:08.665Z,2.58
2023-01-20T19:03:37.256Z,2.03
2023-01-20T19:06:06.755Z,2.10
2023-01-20T19:08:35.894Z,3.38
2023-01-20T19:11:05.576Z,1.73
2023-01-20T19:13:34.168Z,1.95
2023-01-20T19:16:05.430Z,1.15
2023-01-20T19:18:34.000Z,1.00
2023-01-20T19:21:05.467Z,1.45
2023-01-20T19:23:34.355Z,0.98
2023-01-20T19:26:03.223Z,2.03
2023-01-20T19:28:32.216Z,2.08
2023-01-20T19:31:07.254Z,3.00
2023-01-20T19:33:36.060Z,2.10
2023-01-20T19:36:05.641Z,0.95
2023-01-20T19:38:35.556Z,2.65
2023-01-20T19:41:07.866Z,1.98
2023-01-20T19:43:36.459Z,2.58
2023-01-20T19:46:05.412Z,0.57
2023-01-20T19:48:35.503Z,1.65
2023-01-20T19:51:04.780Z,2.05
2023-01-20T19:53:33.648Z,0.98
2023-01-20T19:56:02.436Z,1.05
2023-01-20T19:58:30.825Z,1.67
2023-01-20T20:01:07.105Z,1.08
2023-01-20T20:03:37.082Z,1.70
2023-01-20T20:06:05.781Z,1.98
2023-01-20T20:08:36.408Z,1.20
2023-01-20T20:11:04.753Z,2.05
2023-01-20T20:13:33.108Z,1.13
2023-01-20T20:16:02.478Z,1.30
2023-01-20T20:18:30.826Z,1.27
2023-01-20T20:21:00.885Z,2.58
2023-01-20T20:23:29.881Z,2.55
2023-01-20T20:25:58.407Z,2.35
2023-01-20T20:28:27.358Z,1.15
2023-01-20T20:30:56.687Z,1.52
2023-01-20T20:33:25.515Z,1.33
2023-01-20T20:35:53.956Z,0.50
2023-01-20T20:38:23.667Z,1.60
2023-01-20T20:40:58.060Z,1.08
2023-01-20T20:43:28.103Z,0.40
2023-01-20T20:46:00.563Z,1.17
2023-01-20T20:48:29.157Z,1.48
2023-01-20T20:50:57.733Z,1.88
2023-01-20T20:53:27.418Z,1.30
2023-01-20T20:55:59.039Z,0.90
2023-01-20T20:58:27.451Z,0.75
2023-01-20T21:00:56.734Z,0.95
2023-01-20T21:03:25.594Z,1.15
2023-01-20T21:05:54.579Z,1.88
2023-01-20T21:08:23.374Z,3.15
2023-01-20T21:10:53.790Z,2.70
2023-01-20T21:13:22.277Z,2.22
2023-01-20T21:15:56.618Z,4.60
2023-01-20T21:18:25.295Z,2.88
2023-01-20T21:20:58.172Z,2.13
2023-01-20T21:23:27.319Z,3.05
2023-01-20T21:26:02.041Z,3.00
2023-01-20T21:30:59.155Z,1.80
2023-01-20T21:33:27.707Z,2.35
2023-01-20T21:35:56.030Z,2.25
2023-01-20T21:38:24.487Z,1.90
2023-01-20T21:41:01.276Z,4.20
2023-01-20T21:43:51.560Z,3.70
2023-01-20T21:46:20.420Z,2.97
2023-01-20T21:49:06.459Z,2.05
2023-01-20T21:51:52.461Z,2.55
2023-01-20T21:54:20.831Z,2.10
2023-01-20T21:56:49.439Z,2.40
2023-01-20T21:59:19.379Z,3.50
2023-01-20T22:01:47.744Z,2.33
2023-01-20T22:04:16.181Z,2.67
2023-01-20T22:06:44.827Z,3.65
2023-01-20T22:09:13.689Z,2.65
2023-01-20T22:11:41.950Z,3.47
2023-01-20T22:14:10.622Z,2.72
2023-01-20T22:16:40.349Z,3.47
2023-01-20T22:19:08.716Z,2.85
2023-01-20T22:21:36.976Z,1.98
2023-01-20T22:24:05.300Z,3.88
2023-01-20T22:26:34.137Z,2.28
2023-01-20T22:29:02.790Z,1.63
2023-01-20T22:31:32.126Z,1.65
2023-01-20T22:34:05.234Z,1.75
2023-01-20T22:36:33.995Z,2.42
2023-01-20T22:39:02.444Z,2.63
2023-01-20T22:41:31.126Z,2.10
2023-01-20T22:43:59.407Z,0.88
2023-01-20T22:46:28.651Z,2.20
2023-01-20T22:48:57.409Z,1.77
2023-01-20T22:51:27.917Z,2.55
2023-01-20T22:53:56.535Z,1.65
2023-01-20T22:56:25.671Z,3.95
2023-01-20T22:58:54.351Z,1.50
2023-01-20T23:01:23.673Z,3.25
2023-01-20T23:03:55.432Z,1.48
2023-01-20T23:06:24.841Z,2.20
2023-01-20T23:08:54.491Z,2.13
2023-01-20T23:11:23.576Z,1.38
2023-01-20T23:13:52.435Z,0.98
2023-01-20T23:16:22.347Z,2.40
2023-01-20T23:18:51.032Z,1.88
2023-01-20T23:21:19.984Z,1.60
2023-01-20T23:23:54.391Z,1.40
2023-01-20T23:26:25.566Z,3.10
2023-01-20T23:28:54.060Z,2.28
2023-01-20T23:31:22.805Z,2.08
2023-01-20T23:33:51.320Z,1.75
2023-01-20T23:36:20.586Z,1.98
2023-01-20T23:38:48.959Z,2.80
2023-01-20T23:41:17.862Z,1.23
2023-01-20T23:43:47.447Z,3.60
2023-01-20T23:46:15.727Z,1.10
2023-01-20T23:48:44.004Z,1.35
2023-01-20T23:51:12.299Z,1.33
2023-01-20T23:53:41.316Z,2.03
2023-01-20T23:56:12.637Z,1.23
2023-01-20T23:58:41.116Z,1.20
